createdAt,value
2018-03-23T00:00:41.866Z,2.10
2018-03-23T00:03:15.141Z,2.09
2018-03-23T00:05:48.419Z,2.10
2018-03-23T00:08:21.692Z,2.10
2018-03-23T00:10:54.940Z,2.11
2018-03-23T00:13:28.208Z,2.11
2018-03-23T01:47:12.709Z,1.87
2018-03-23T01:49:45.968Z,1.85
2018-03-23T01:52:20.008Z,1.89
2018-03-23T01:54:53.259Z,1.84
2018-03-23T01:57:27.322Z,1.85
2018-03-23T02:00:00.578Z,1.90
2018-03-23T03:30:56.243Z,1.96
2018-03-23T03:33:30.300Z,1.97
2018-03-23T03:36:03.556Z,1.94
2018-03-23T03:38:36.822Z,1.96
2018-03-23T03:41:10.848Z,1.98
2018-03-23T03:43:44.909Z,1.99
2018-03-23T04:48:07.245Z,1.99
2018-03-23T04:50:41.266Z,1.98
2018-03-23T04:53:14.544Z,1.96
2018-03-23T04:55:47.797Z,1.96
2018-03-23T04:58:21.093Z,1.97
2018-03-23T05:33:26.860Z,1.91
2018-03-23T05:36:00.921Z,1.93
2018-03-23T05:38:34.162Z,1.94
2018-03-23T05:41:08.209Z,1.92
2018-03-23T05:43:41.456Z,1.95
2018-03-23T05:46:15.565Z,1.97
2018-03-23T05:48:48.757Z,1.99
2018-03-23T05:51:22.039Z,2.00
2018-03-23T05:53:55.288Z,2.02
2018-03-23T05:56:28.560Z,2.03
2018-03-23T05:59:01.850Z,2.04
2018-03-23T06:01:35.889Z,2.06
2018-03-23T06:04:09.140Z,2.07
2018-03-23T06:06:42.424Z,2.09
2018-03-23T06:09:15.685Z,2.08
2018-03-23T06:11:48.965Z,2.08
2018-03-23T06:14:22.207Z,2.11
2018-03-23T06:16:55.508Z,2.12
2018-03-23T06:19:28.768Z,2.15
2018-03-23T06:22:02.041Z,2.17
2018-03-23T06:24:35.314Z,2.19
2018-03-23T06:27:09.339Z,2.22
2018-03-23T06:29:42.609Z,2.24
2018-03-23T06:32:15.862Z,2.25
2018-03-23T06:34:49.129Z,2.26
2018-03-23T06:37:22.378Z,2.26
2018-03-23T06:39:55.661Z,2.26
2018-03-23T06:42:28.925Z,2.28
2018-03-23T06:45:02.204Z,2.29
2018-03-23T06:47:35.472Z,2.30
2018-03-23T06:50:08.751Z,2.31
2018-03-23T06:52:42.797Z,2.33
2018-03-23T06:55:16.050Z,2.31
2018-03-23T06:57:49.320Z,2.31
2018-03-23T07:00:22.573Z,2.33
2018-03-23T07:02:55.841Z,2.35
2018-03-23T07:05:29.085Z,2.36
2018-03-23T07:08:02.394Z,2.38
2018-03-23T07:10:35.653Z,2.38
2018-03-23T07:13:08.949Z,2.40
2018-03-23T07:15:42.209Z,2.41
2018-03-23T07:18:15.484Z,2.41
2018-03-23T07:20:48.776Z,2.42
2018-03-23T07:23:22.024Z,2.42
2018-03-23T07:25:55.298Z,2.44
2018-03-23T07:28:28.564Z,2.44
2018-03-23T08:03:23.133Z,2.67
2018-03-23T08:05:56.386Z,2.67
2018-03-23T08:08:30.438Z,2.69
2018-03-23T08:11:03.691Z,2.70
2018-03-23T08:13:36.977Z,2.72
2018-03-23T09:01:43.429Z,3.30
2018-03-23T09:04:16.684Z,3.32
2018-03-23T09:06:49.964Z,3.35
2018-03-23T09:09:23.255Z,3.36
2018-03-23T09:11:56.539Z,3.36
2018-03-23T09:14:29.814Z,3.37
2018-03-23T10:02:36.388Z,3.68
2018-03-23T10:05:09.641Z,3.69
2018-03-23T10:07:42.922Z,3.70
2018-03-23T10:10:16.164Z,3.71
2018-03-23T10:12:50.212Z,3.73
2018-03-23T11:01:02.197Z,3.93
2018-03-23T11:03:35.475Z,3.89
2018-03-23T11:06:08.729Z,3.90
2018-03-23T11:08:42.011Z,3.93
2018-03-23T11:11:15.245Z,3.99
2018-03-23T11:13:48.528Z,4.05
2018-03-23T12:01:53.322Z,4.07
2018-03-23T12:04:26.578Z,4.08
2018-03-23T12:06:59.863Z,4.10
2018-03-23T12:09:33.113Z,4.13
2018-03-23T12:12:07.146Z,4.19
2018-03-23T12:14:40.409Z,4.28
2018-03-23T13:02:47.177Z,5.10
2018-03-23T13:05:21.231Z,5.19
2018-03-23T13:07:54.471Z,5.31
2018-03-23T13:10:27.765Z,5.41
2018-03-23T13:13:01.782Z,5.50
2018-03-23T14:01:08.812Z,6.11
2018-03-23T14:03:42.061Z,6.16
2018-03-23T14:06:15.334Z,6.10
2018-03-23T14:08:49.362Z,6.05
2018-03-23T14:11:23.406Z,6.06
2018-03-23T14:13:56.694Z,6.04
2018-03-23T15:02:02.514Z,6.60
2018-03-23T15:04:35.731Z,6.63
2018-03-23T15:07:08.997Z,6.66
2018-03-23T15:09:43.018Z,6.70
2018-03-23T15:12:17.055Z,6.75
2018-03-23T15:14:50.314Z,6.79
2018-03-23T15:46:40.409Z,6.46
2018-03-23T15:49:13.666Z,6.41
2018-03-23T15:51:46.944Z,6.39
2018-03-23T15:54:20.184Z,6.34
2018-03-23T15:56:53.460Z,6.30
2018-03-23T15:59:26.721Z,6.28
2018-03-23T16:02:00.065Z,6.27
2018-03-23T16:04:34.003Z,6.25
2018-03-23T16:07:08.046Z,6.23
2018-03-23T16:09:41.303Z,6.19
2018-03-23T16:12:14.582Z,6.17
2018-03-23T16:14:47.829Z,6.16
2018-03-23T16:17:21.115Z,6.15
2018-03-23T16:19:54.366Z,6.13
2018-03-23T16:22:27.644Z,6.11
2018-03-23T16:25:00.892Z,6.10
2018-03-23T16:27:34.161Z,6.08
2018-03-23T16:30:08.173Z,6.06
2018-03-23T16:32:41.457Z,6.02
2018-03-23T16:35:14.722Z,6.00
2018-03-23T16:37:48.002Z,6.00
2018-03-23T16:40:21.242Z,5.98
2018-03-23T16:42:55.334Z,5.97
2018-03-23T16:45:28.538Z,5.95
2018-03-23T16:48:01.845Z,5.94
2018-03-23T16:50:35.070Z,5.92
2018-03-23T16:53:08.338Z,5.92
2018-03-23T16:55:41.588Z,5.91
2018-03-23T16:58:14.921Z,5.90
2018-03-23T17:00:48.939Z,5.88
2018-03-23T17:03:22.221Z,5.85
2018-03-23T17:05:55.461Z,5.85
2018-03-23T17:08:28.742Z,5.84
2018-03-23T17:11:02.002Z,5.82
2018-03-23T17:13:35.292Z,5.81
2018-03-23T17:16:08.529Z,5.80
2018-03-23T17:18:42.909Z,5.80
2018-03-23T17:21:16.177Z,5.78
2018-03-23T17:23:49.421Z,5.78
2018-03-23T17:26:22.726Z,5.76
2018-03-23T17:28:55.973Z,5.75
2018-03-23T17:31:29.246Z,5.74
2018-03-23T17:34:02.503Z,5.72
2018-03-23T17:36:35.993Z,5.72
2018-03-23T17:39:10.018Z,5.71
2018-03-23T17:41:43.270Z,5.71
2018-03-23T17:44:16.564Z,5.70
2018-03-23T17:46:49.809Z,5.70
2018-03-23T17:49:23.086Z,5.70
2018-03-23T17:51:56.338Z,5.71
2018-03-23T17:54:29.616Z,5.69
2018-03-23T17:57:02.885Z,5.69
2018-03-23T17:59:36.129Z,5.69
2018-03-23T18:02:10.270Z,5.70
2018-03-23T18:04:43.537Z,5.68
2018-03-23T18:07:17.473Z,5.68
2018-03-23T18:09:50.843Z,5.68
2018-03-23T18:12:25.103Z,5.67
2018-03-23T18:14:58.520Z,5.64
2018-03-23T18:17:31.787Z,5.65
2018-03-23T18:20:05.123Z,5.62
2018-03-23T18:22:39.126Z,5.61
2018-03-23T18:25:12.406Z,5.61
2018-03-23T18:27:45.653Z,5.61
2018-03-23T18:30:18.937Z,5.58
2018-03-23T18:32:52.215Z,5.59
2018-03-23T18:35:25.471Z,5.60
2018-03-23T18:37:58.740Z,5.63
2018-03-23T18:40:32.782Z,5.65
2018-03-23T18:43:06.038Z,5.63
2018-03-23T18:45:40.093Z,5.62
2018-03-23T18:48:14.255Z,5.63
2018-03-23T18:50:47.498Z,5.64
2018-03-23T18:53:20.775Z,5.65
2018-03-23T18:55:54.054Z,5.65
2018-03-23T18:58:28.069Z,5.66
2018-03-23T19:01:01.868Z,5.66
2018-03-23T19:03:35.889Z,5.67
2018-03-23T19:06:09.156Z,5.66
2018-03-23T19:08:42.434Z,5.69
2018-03-23T19:11:15.690Z,5.65
2018-03-23T19:13:49.007Z,5.60
2018-03-23T19:16:22.263Z,5.63
2018-03-23T19:18:55.534Z,5.65
2018-03-23T19:21:29.546Z,5.67
2018-03-23T19:24:02.824Z,5.67
2018-03-23T19:26:36.072Z,5.67
2018-03-23T19:29:09.357Z,5.67
2018-03-23T19:34:15.944Z,5.66
2018-03-23T19:36:49.197Z,5.66
2018-03-23T19:39:22.477Z,5.66
2018-03-23T19:41:55.738Z,5.66
2018-03-23T19:44:29.027Z,5.65
2018-03-23T19:47:02.276Z,5.65
2018-03-23T19:49:35.559Z,5.65
2018-03-23T19:52:08.834Z,5.64
2018-03-23T19:54:42.078Z,5.64
2018-03-23T19:57:15.466Z,5.65
2018-03-23T19:59:48.677Z,5.64
2018-03-23T20:02:21.945Z,5.65
2018-03-23T20:04:55.235Z,5.65
2018-03-23T20:07:28.471Z,5.64
2018-03-23T20:10:01.765Z,5.64
2018-03-23T20:12:35.028Z,5.63
2018-03-23T20:15:09.070Z,5.63
2018-03-23T20:17:47.953Z,5.62
2018-03-23T20:20:26.789Z,5.61
2018-03-23T20:23:00.065Z,5.61
2018-03-23T20:25:33.304Z,5.60
2018-03-23T20:28:12.011Z,5.60
2018-03-23T20:30:46.043Z,5.60
2018-03-23T20:33:19.318Z,5.60
2018-03-23T20:35:53.337Z,5.60
2018-03-23T20:38:27.378Z,5.58
2018-03-23T20:41:00.633Z,5.57
2018-03-23T20:43:34.663Z,5.56
2018-03-23T20:46:07.917Z,5.54
2018-03-23T20:48:41.187Z,5.53
2018-03-23T20:51:14.469Z,5.53
2018-03-23T20:53:47.719Z,5.53
2018-03-23T20:56:21.767Z,5.54
2018-03-23T20:58:55.045Z,5.54
2018-03-23T21:01:28.301Z,5.53
2018-03-23T21:04:02.350Z,5.52
2018-03-23T21:06:35.593Z,5.52
2018-03-23T21:09:08.891Z,5.52
2018-03-23T21:11:42.154Z,5.51
2018-03-23T21:14:15.408Z,5.51
2018-03-23T21:16:48.708Z,5.50
2018-03-23T21:19:21.981Z,5.49
2018-03-23T21:21:55.259Z,5.49
2018-03-23T21:24:28.542Z,5.48
2018-03-23T21:27:01.810Z,5.48
2018-03-23T21:29:35.079Z,5.47
2018-03-23T21:32:08.340Z,5.49
2018-03-23T21:34:41.635Z,5.48
2018-03-23T21:37:14.890Z,5.48
2018-03-23T21:39:48.161Z,5.49
2018-03-23T21:42:21.412Z,5.48
2018-03-23T21:44:54.686Z,5.49
2018-03-23T21:47:27.945Z,5.49
2018-03-23T21:50:01.226Z,5.48
2018-03-23T21:52:34.521Z,5.48
2018-03-23T21:55:07.803Z,5.48
2018-03-23T21:57:41.823Z,5.47
2018-03-23T22:00:15.861Z,5.47
2018-03-23T22:02:49.111Z,5.45
2018-03-23T22:05:23.158Z,5.45
2018-03-23T22:07:56.388Z,5.44
2018-03-23T22:10:29.661Z,5.43
2018-03-23T22:13:02.909Z,5.42
2018-03-23T22:15:36.946Z,5.41
2018-03-23T22:18:10.204Z,5.40
2018-03-23T22:20:43.473Z,5.40
2018-03-23T22:23:16.746Z,5.40
2018-03-23T22:25:49.989Z,5.40
2018-03-23T22:28:24.035Z,5.40
2018-03-23T22:30:57.287Z,5.39
2018-03-23T22:33:30.554Z,5.38
2018-03-23T22:36:03.811Z,5.38
2018-03-23T22:38:37.081Z,5.37
2018-03-23T22:41:11.085Z,5.37
2018-03-23T22:43:45.130Z,5.36
2018-03-23T22:46:18.395Z,5.34
2018-03-23T22:48:51.653Z,5.34
2018-03-23T22:51:24.895Z,5.32
2018-03-23T22:53:58.953Z,5.32
2018-03-23T22:56:32.192Z,5.31
2018-03-23T22:59:05.463Z,5.31
2018-03-23T23:01:38.713Z,5.32
2018-03-23T23:04:11.987Z,5.32
2018-03-23T23:06:45.995Z,5.34
2018-03-23T23:09:19.267Z,5.33
2018-03-23T23:11:52.509Z,5.34
2018-03-23T23:14:25.800Z,5.33
2018-03-23T23:16:59.062Z,5.34
2018-03-23T23:19:33.069Z,5.33
2018-03-23T23:22:06.357Z,5.34
2018-03-23T23:24:40.377Z,5.34
2018-03-23T23:27:13.642Z,5.33
2018-03-23T23:29:46.889Z,5.33
2018-03-23T23:32:20.154Z,5.32
2018-03-23T23:34:54.205Z,5.31
2018-03-23T23:37:27.482Z,5.29
2018-03-23T23:40:00.733Z,5.27
2018-03-23T23:42:33.997Z,5.26
2018-03-23T23:45:07.259Z,5.25
2018-03-23T23:47:41.284Z,5.24
2018-03-23T23:50:14.537Z,5.22
2018-03-23T23:52:47.828Z,5.22
2018-03-23T23:55:21.068Z,5.20
2018-03-23T23:57:54.366Z,5.18
